Time;durP1;ratioP1;P1;durP2;ratioP2;P2;SDS_P1;SDS_P2;PMS_P1;PMS_P2;Temp;Humidity;BMP_temperature;BMP_pressure;BME280_temperature;BME280_humidity;BME280_pressure;Samples;Min_cycle;Max_cycle;Signal;HPM_P1;HPM_P2
2022/06/23 00:00:01;;;;;;;1.45;0.85;;;27.30;91.90;;;;;;5054647;28;20060;-58
2022/06/23 00:02:33;;;;;;;2.67;1.42;;;27.30;92.00;;;;;;5068127;28;20057;-60
2022/06/23 00:05:12;;;;;;;8.32;3.00;;;27.30;91.90;;;;;;5048067;28;20056;-59
2022/06/23 00:07:46;;;;;;;1.25;1.08;;;27.30;92.10;;;;;;5046590;28;20849;-58
2022/06/23 00:10:38;;;;;;;2.00;0.90;;;27.30;91.90;;;;;;5052869;28;20525;-63
2022/06/23 00:13:31;;;;;;;0.70;0.70;;;27.30;92.00;;;;;;5038561;28;20041;-59
2022/06/23 00:15:59;;;;;;;0.90;0.85;;;27.30;92.10;;;;;;5061329;28;20036;-58
2022/06/23 00:18:34;;;;;;;6.85;2.15;;;27.30;91.90;;;;;;5067288;28;20048;-62
2022/06/23 00:21:13;;;;;;;2.33;1.15;;;27.30;92.10;;;;;;5066287;28;20045;-59
2022/06/23 00:23:44;;;;;;;7.20;2.53;;;27.30;92.50;;;;;;5053081;28;20053;-59
2022/06/23 00:26:20;;;;;;;1.73;1.15;;;27.30;92.00;;;;;;5058153;28;20113;-62
2022/06/23 00:28:49;;;;;;;1.38;1.23;;;27.30;92.00;;;;;;5048807;28;20052;-60
2022/06/23 00:31:24;;;;;;;5.05;2.80;;;27.30;92.00;;;;;;5058823;28;20052;-63
2022/06/23 00:33:52;;;;;;;1.40;1.25;;;27.30;92.20;;;;;;5063248;28;20045;-59
2022/06/23 00:36:36;;;;;;;0.88;0.88;;;27.30;92.20;;;;;;5062258;28;20049;-58
2022/06/23 00:39:06;;;;;;;0.95;0.90;;;27.30;92.10;;;;;;5054936;28;20041;-60
2022/06/23 00:41:36;;;;;;;1.67;1.23;;;27.20;92.10;;;;;;5053463;28;20053;-59
2022/06/23 00:44:08;;;;;;;5.57;1.88;;;27.30;92.40;;;;;;5047859;28;20511;-60
2022/06/23 00:46:47;;;;;;;0.80;0.77;;;27.30;92.10;;;;;;5051758;28;20045;-66
2022/06/23 00:49:14;;;;;;;0.40;0.40;;;27.30;92.20;;;;;;5051939;28;20044;-56
2022/06/23 00:51:57;;;;;;;0.95;0.80;;;27.30;92.20;;;;;;5061163;28;20052;-62
2022/06/23 00:54:36;;;;;;;1.33;1.25;;;27.30;92.20;;;;;;5055626;28;20064;-60
2022/06/23 00:57:29;;;;;;;0.68;0.68;;;27.30;92.30;;;;;;5054077;28;20463;-62
2022/06/23 01:00:06;;;;;;;1.38;1.00;;;27.20;92.40;;;;;;5054831;28;20049;-59
2022/06/23 01:02:51;;;;;;;3.47;0.88;;;27.20;92.40;;;;;;5063535;28;20392;-63
2022/06/23 01:05:45;;;;;;;4.97;1.83;;;27.20;92.30;;;;;;5059178;28;20152;-61
2022/06/23 01:08:18;;;;;;;1.65;1.17;;;27.20;92.50;;;;;;5051975;28;20061;-65
2022/06/23 01:11:00;;;;;;;1.42;1.15;;;27.00;92.80;;;;;;5062429;28;20946;-60
2022/06/23 01:13:46;;;;;;;5.40;2.65;;;26.80;93.10;;;;;;5068836;28;20059;-61
2022/06/23 01:16:20;;;;;;;3.70;2.33;;;26.60;93.40;;;;;;5060152;28;20056;-60
2022/06/23 01:19:13;;;;;;;3.50;2.30;;;26.40;93.60;;;;;;5062589;28;20056;-57
2022/06/23 01:21:45;;;;;;;2.72;2.25;;;26.40;93.90;;;;;;5062930;28;20060;-59
2022/06/23 01:24:42;;;;;;;3.50;2.38;;;26.30;94.10;;;;;;5052925;28;20400;-54
2022/06/23 01:27:41;;;;;;;1.80;1.65;;;26.30;94.20;;;;;;5045155;28;20412;-58
2022/06/23 01:30:10;;;;;;;1.35;0.88;;;26.40;94.00;;;;;;5058679;28;20043;-62
2022/06/23 01:32:57;;;;;;;2.05;1.85;;;26.50;93.60;;;;;;5054960;28;20064;-60
2022/06/23 01:35:33;;;;;;;8.38;3.45;;;26.60;93.20;;;;;;5040237;28;20056;-62
2022/06/23 01:38:09;;;;;;;3.00;1.33;;;26.70;93.20;;;;;;5059875;28;20049;-60
2022/06/23 01:40:57;;;;;;;6.13;2.72;;;26.80;93.10;;;;;;5060747;28;20429;-63
2022/06/23 01:43:35;;;;;;;0.95;0.95;;;26.80;93.00;;;;;;5057137;28;20056;-62
2022/06/23 01:46:15;;;;;;;;;;;26.80;92.90;;;;;;5059381;28;20060;-61
2022/06/23 01:48:53;;;;;;;6.05;2.25;;;26.80;93.40;;;;;;5049361;28;20375;-57
2022/06/23 01:51:26;;;;;;;0.70;0.50;;;26.80;93.20;;;;;;5058390;28;20045;-59
2022/06/23 01:54:21;;;;;;;9.60;2.42;;;26.70;93.50;;;;;;5054416;28;20060;-58
2022/06/23 01:57:10;;;;;;;4.00;1.52;;;26.60;93.70;;;;;;5041863;28;20052;-60
2022/06/23 02:00:09;;;;;;;0.88;0.88;;;26.50;93.80;;;;;;5054545;28;20049;-61
2022/06/23 02:02:58;;;;;;;5.38;1.85;;;26.60;93.70;;;;;;5052745;28;20059;-57
2022/06/23 02:05:38;;;;;;;3.03;1.65;;;26.70;93.50;;;;;;5057600;28;20076;-62
2022/06/23 02:08:20;;;;;;;8.80;1.55;;;26.70;93.40;;;;;;5053076;28;20503;-58
2022/06/23 02:11:06;;;;;;;1.42;1.33;;;26.80;93.40;;;;;;5063420;28;20052;-60
2022/06/23 02:13:42;;;;;;;4.15;2.50;;;26.60;93.60;;;;;;5049933;28;20055;-59
2022/06/23 02:16:27;;;;;;;4.70;2.60;;;26.60;93.70;;;;;;5062333;28;20049;-55
2022/06/23 02:19:15;;;;;;;1.00;0.90;;;26.60;93.70;;;;;;5057881;28;20056;-57
2022/06/23 02:21:49;;;;;;;2.55;1.75;;;26.70;93.70;;;;;;5049176;28;20123;-60
2022/06/23 02:24:32;;;;;;;3.75;2.15;;;26.70;93.60;;;;;;5049206;28;20056;-62
2022/06/23 02:27:22;;;;;;;3.40;2.33;;;26.60;93.70;;;;;;5066924;28;20507;-62
2022/06/23 02:29:50;;;;;;;1.20;1.15;;;26.70;93.60;;;;;;5050817;28;21567;-58
2022/06/23 02:32:21;;;;;;;;;;;26.70;93.50;;;;;;5079938;28;20051;-61
2022/06/23 02:35:22;;;;;;;6.20;2.15;;;26.70;93.40;;;;;;5052948;28;19936;-57
2022/06/23 02:37:59;;;;;;;1.95;1.55;;;26.80;93.30;;;;;;5049036;28;20052;-58
2022/06/23 02:40:38;;;;;;;3.92;2.05;;;26.70;93.40;;;;;;5058975;28;20057;-63
2022/06/23 02:43:32;;;;;;;4.60;1.88;;;26.70;93.60;;;;;;5063564;28;20370;-60
2022/06/23 02:46:10;;;;;;;3.58;2.05;;;26.70;93.50;;;;;;5065204;28;20049;-57
2022/06/23 02:48:58;;;;;;;4.72;2.65;;;26.70;93.60;;;;;;5064509;28;20056;-60
2022/06/23 02:52:03;;;;;;;4.38;2.42;;;26.80;93.50;;;;;;5066308;28;20040;-60
2022/06/23 02:54:36;;;;;;;3.45;2.08;;;26.80;93.70;;;;;;5057158;28;20534;-60
2022/06/23 02:57:19;;;;;;;4.15;1.98;;;26.70;93.70;;;;;;5061497;28;20071;-59
2022/06/23 02:59:58;;;;;;;1.55;1.42;;;26.70;93.70;;;;;;5042572;28;20467;-57
2022/06/23 03:02:34;;;;;;;2.97;1.98;;;26.70;93.80;;;;;;5059539;28;20036;-58
2022/06/23 03:05:07;;;;;;;7.88;3.15;;;26.70;93.70;;;;;;5057845;28;20044;-63
2022/06/23 03:08:14;;;;;;;4.68;2.63;;;26.70;93.60;;;;;;5060233;28;20389;-60
2022/06/23 03:11:19;;;;;;;5.43;3.00;;;26.70;93.60;;;;;;5000566;28;20071;-57
2022/06/23 03:13:53;;;;;;;3.95;2.10;;;26.70;93.70;;;;;;5055399;28;20313;-59
2022/06/23 03:16:21;;;;;;;5.70;2.90;;;26.70;93.80;;;;;;5051692;28;20045;-60
2022/06/23 03:19:06;;;;;;;3.58;2.42;;;26.60;93.80;;;;;;5067294;28;20078;-66
2022/06/23 03:21:54;;;;;;;1.23;1.15;;;26.60;93.90;;;;;;5033208;28;20049;-57
2022/06/23 03:24:48;;;;;;;3.25;2.83;;;26.60;93.80;;;;;;5052407;28;20435;-58
2022/06/23 03:27:33;;;;;;;4.40;1.58;;;26.60;93.70;;;;;;5063314;28;20048;-61
2022/06/23 03:30:13;;;;;;;2.28;1.80;;;26.60;93.60;;;;;;5053698;28;20056;-60
2022/06/23 03:32:51;;;;;;;2.30;1.67;;;26.70;93.70;;;;;;5072232;28;20151;-58
2022/06/23 03:35:25;;;;;;;2.17;1.90;;;26.60;93.60;;;;;;5055512;28;20075;-56
2022/06/23 03:37:55;;;;;;;3.25;1.55;;;26.60;93.50;;;;;;5052271;28;20041;-60
2022/06/23 03:43:33;;;;;;;1.05;1.00;;;26.60;93.50;;;;;;5071225;28;20059;-62
2022/06/23 03:46:24;;;;;;;1.27;1.20;;;26.50;93.50;;;;;;5075861;28;20056;-65
2022/06/23 03:48:58;;;;;;;10.10;3.20;;;26.60;93.50;;;;;;5068509;28;20044;-64
2022/06/23 03:51:35;;;;;;;1.95;1.05;;;26.50;93.50;;;;;;5052982;28;20072;-61
2022/06/23 03:54:17;;;;;;;9.38;2.65;;;26.40;93.60;;;;;;5064850;28;20067;-61
2022/06/23 03:56:52;;;;;;;2.00;1.67;;;26.30;93.60;;;;;;5049562;28;20071;-61
2022/06/23 03:59:36;;;;;;;3.63;1.98;;;26.40;93.60;;;;;;5064721;28;20044;-59
2022/06/23 04:02:16;;;;;;;2.25;1.55;;;26.50;93.50;;;;;;5048394;28;20056;-59
2022/06/23 04:05:27;;;;;;;4.18;1.67;;;26.50;93.40;;;;;;5064181;28;20063;-60
2022/06/23 04:08:04;;;;;;;1.20;1.10;;;26.50;93.30;;;;;;4996830;28;20150;-58
2022/06/23 04:10:42;;;;;;;3.15;1.85;;;26.50;93.20;;;;;;5050215;28;20336;-60
2022/06/23 04:13:28;;;;;;;1.30;1.20;;;26.50;93.20;;;;;;5059502;28;20056;-56
2022/06/23 04:16:03;;;;;;;3.00;1.63;;;26.50;93.20;;;;;;5056577;28;20044;-61
2022/06/23 04:18:32;;;;;;;2.17;1.33;;;26.30;93.50;;;;;;5059183;28;20070;-60
2022/06/23 04:21:10;;;;;;;4.75;2.28;;;26.20;93.60;;;;;;5055783;28;20060;-60
2022/06/23 04:23:42;;;;;;;2.72;1.73;;;26.30;93.60;;;;;;5062124;28;20056;-60
2022/06/23 04:26:17;;;;;;;14.50;1.38;;;26.30;93.50;;;;;;5050798;28;20057;-58
2022/06/23 04:28:52;;;;;;;2.00;1.38;;;26.30;93.70;;;;;;5048772;28;20048;-60
2022/06/23 04:31:27;;;;;;;2.38;1.92;;;26.30;93.40;;;;;;5062937;28;20049;-58
2022/06/23 04:33:55;;;;;;;1.65;1.42;;;26.30;93.30;;;;;;5061231;28;20148;-59
2022/06/23 04:36:35;;;;;;;6.35;2.53;;;26.30;93.30;;;;;;5063551;28;20056;-58
2022/06/23 04:39:08;;;;;;;3.58;2.65;;;26.40;93.20;;;;;;5056699;28;20053;-62
2022/06/23 04:41:46;;;;;;;7.30;2.38;;;26.50;93.10;;;;;;5064722;28;20060;-62
2022/06/23 04:44:35;;;;;;;2.58;1.60;;;26.50;93.00;;;;;;5059372;28;20069;-62
2022/06/23 04:47:15;;;;;;;1.92;1.08;;;26.50;92.90;;;;;;5054756;28;20517;-60
2022/06/23 04:49:50;;;;;;;23.20;2.85;;;26.50;92.90;;;;;;5051475;28;20144;-61
2022/06/23 04:52:26;;;;;;;5.20;1.50;;;26.40;92.90;;;;;;5051852;28;20507;-60
2022/06/23 04:55:06;;;;;;;2.53;1.15;;;26.40;92.90;;;;;;5052720;28;20048;-61
2022/06/23 04:57:46;;;;;;;0.65;0.65;;;26.40;92.90;;;;;;5069547;28;20044;-60
2022/06/23 05:00:23;;;;;;;3.10;2.28;;;26.40;92.80;;;;;;5060658;28;20055;-59
2022/06/23 05:02:57;;;;;;;3.25;1.85;;;26.50;92.70;;;;;;5066576;28;20511;-64
2022/06/23 05:05:31;;;;;;;1.48;1.23;;;26.50;92.60;;;;;;5071287;28;20060;-58
2022/06/23 05:08:12;;;;;;;12.80;4.07;;;26.50;92.60;;;;;;5064504;28;20057;-60
2022/06/23 05:10:48;;;;;;;1.55;0.95;;;26.40;92.60;;;;;;5067072;28;20052;-62
2022/06/23 05:13:20;;;;;;;1.38;1.17;;;26.40;92.60;;;;;;5058582;28;20056;-60
2022/06/23 05:16:05;;;;;;;4.00;1.52;;;26.40;92.70;;;;;;5065146;28;20471;-64
2022/06/23 05:18:46;;;;;;;3.33;1.95;;;26.40;92.70;;;;;;5068465;28;20048;-66
2022/06/23 05:21:23;;;;;;;2.13;1.70;;;26.40;92.70;;;;;;5054114;28;20049;-63
2022/06/23 05:23:51;;;;;;;1.63;1.35;;;26.30;92.70;;;;;;5067035;28;20091;-61
2022/06/23 05:26:36;;;;;;;1.17;1.10;;;26.30;92.80;;;;;;5059843;28;20049;-66
2022/06/23 05:29:13;;;;;;;3.63;1.95;;;26.30;92.80;;;;;;5030132;28;20063;-62
2022/06/23 05:31:41;;;;;;;1.73;1.13;;;26.40;92.80;;;;;;5070266;28;20063;-62
2022/06/23 05:34:24;;;;;;;3.85;2.20;;;26.40;92.70;;;;;;5068133;28;20037;-61
2022/06/23 05:36:56;;;;;;;3.85;2.03;;;26.30;92.80;;;;;;5069390;28;20048;-61
2022/06/23 05:39:42;;;;;;;4.90;2.45;;;26.40;92.80;;;;;;5072413;28;20475;-62
2022/06/23 05:42:20;;;;;;;4.43;2.88;;;26.40;92.80;;;;;;5066322;28;20064;-60
2022/06/23 05:44:53;;;;;;;3.95;2.08;;;26.40;92.80;;;;;;5067046;28;20062;-62
2022/06/23 05:47:21;;;;;;;1.45;1.35;;;26.40;92.70;;;;;;5059763;28;20045;-61
2022/06/23 05:49:53;;;;;;;3.40;2.10;;;26.40;92.80;;;;;;5068579;28;20040;-63
2022/06/23 05:52:52;;;;;;;2.15;1.40;;;26.40;92.70;;;;;;5055077;28;20456;-55
2022/06/23 05:55:32;;;;;;;4.07;2.45;;;26.40;93.00;;;;;;5059183;28;20423;-59
2022/06/23 05:58:29;;;;;;;4.20;2.40;;;26.20;92.90;;;;;;5063914;28;20041;-60
2022/06/23 06:00:59;;;;;;;1.83;1.70;;;26.30;92.90;;;;;;5060513;28;20059;-62
2022/06/23 06:03:37;;;;;;;2.47;1.45;;;26.30;92.80;;;;;;5060296;28;20061;-63
2022/06/23 06:06:06;;;;;;;3.88;2.40;;;26.30;92.70;;;;;;5054998;28;20044;-62
2022/06/23 06:11:41;;;;;;;2.42;1.65;;;26.30;92.70;;;;;;5068408;28;20065;-61
2022/06/23 06:14:15;;;;;;;0.88;0.88;;;26.30;92.70;;;;;;5065302;28;20044;-62
2022/06/23 06:16:43;;;;;;;1.75;1.15;;;26.30;92.70;;;;;;5067241;28;20453;-56
2022/06/23 06:19:19;;;;;;;1.85;1.70;;;26.30;92.70;;;;;;5061246;28;20455;-62
2022/06/23 06:21:49;;;;;;;3.85;2.15;;;26.30;92.70;;;;;;5064738;28;20052;-56
2022/06/23 06:24:23;;;;;;;3.50;2.00;;;26.40;92.70;;;;;;5064625;28;20131;-60
2022/06/23 06:26:53;;;;;;;1.80;1.40;;;26.40;92.80;;;;;;5064624;28;20044;-61
2022/06/23 06:29:22;;;;;;;1.38;1.13;;;26.30;93.00;;;;;;5064280;28;20074;-58
2022/06/23 06:32:09;;;;;;;3.65;1.92;;;26.00;93.30;;;;;;5063833;28;20053;-61
2022/06/23 06:34:41;;;;;;;4.90;3.42;;;26.10;93.50;;;;;;5065027;28;20045;-60
2022/06/23 06:37:13;;;;;;;6.63;2.83;;;25.90;93.60;;;;;;5046234;28;20060;-57
2022/06/23 06:39:46;;;;;;;0.70;0.70;;;26.00;94.00;;;;;;5063864;28;20056;-63
2022/06/23 06:42:19;;;;;;;0.90;0.88;;;26.00;94.10;;;;;;5046231;28;20059;-59
2022/06/23 06:44:50;;;;;;;7.38;2.80;;;26.00;93.80;;;;;;5067219;28;20064;-64
2022/06/23 06:47:30;;;;;;;2.80;1.27;;;26.10;93.70;;;;;;5063195;28;20525;-62
2022/06/23 06:50:05;;;;;;;8.38;3.13;;;26.20;93.90;;;;;;5063513;28;20549;-62
2022/06/23 06:52:33;;;;;;;3.38;1.95;;;26.10;94.00;;;;;;5050835;28;20053;-58
2022/06/23 06:55:15;;;;;;;13.85;1.67;;;26.00;94.10;;;;;;5052951;28;20499;-64
2022/06/23 06:57:49;;;;;;;2.28;1.95;;;26.10;94.20;;;;;;5049726;28;20389;-63
2022/06/23 07:00:38;;;;;;;5.18;2.20;;;26.00;94.40;;;;;;5057840;28;20419;-60
2022/06/23 07:03:06;;;;;;;2.58;1.52;;;26.10;94.20;;;;;;5062589;28;20056;-61
2022/06/23 07:05:37;;;;;;;4.13;2.25;;;26.10;94.30;;;;;;5058956;28;20503;-55
2022/06/23 07:08:31;;;;;;;2.08;1.88;;;26.30;93.90;;;;;;5056174;28;20048;-55
2022/06/23 07:11:12;;;;;;;1.80;1.33;;;26.30;93.90;;;;;;5039677;28;20044;-65
2022/06/23 07:13:52;;;;;;;1.85;1.63;;;26.30;94.00;;;;;;5059558;28;20068;-63
2022/06/23 07:16:48;;;;;;;2.92;1.83;;;26.30;94.10;;;;;;5066926;28;20059;-59
2022/06/23 07:19:18;;;;;;;2.35;1.77;;;26.30;94.20;;;;;;5055972;28;20061;-63
2022/06/23 07:22:18;;;;;;;2.63;2.10;;;26.30;94.10;;;;;;5056745;28;20404;-60
2022/06/23 07:24:55;;;;;;;4.53;2.42;;;26.30;94.10;;;;;;5060480;28;20055;-62
2022/06/23 07:27:30;;;;;;;2.75;1.88;;;26.30;94.60;;;;;;5058547;28;20064;-64
2022/06/23 07:30:07;;;;;;;1.30;1.20;;;26.40;94.80;;;;;;5063346;28;20045;-62
2022/06/23 07:32:37;;;;;;;4.95;3.40;;;26.50;94.90;;;;;;5067782;28;20044;-62
2022/06/23 07:35:08;;;;;;;4.82;1.92;;;26.50;94.80;;;;;;5081200;28;20052;-59
2022/06/23 07:37:45;;;;;;;2.45;1.45;;;26.60;94.80;;;;;;5068080;28;20448;-59
2022/06/23 07:40:15;;;;;;;1.35;1.20;;;26.60;94.80;;;;;;5086649;28;20263;-61
2022/06/23 07:42:49;;;;;;;5.55;2.22;;;26.60;94.90;;;;;;5064816;28;20040;-63
2022/06/23 07:45:42;;;;;;;4.07;2.10;;;26.60;95.00;;;;;;5063909;28;20053;-59
2022/06/23 07:48:10;;;;;;;6.18;2.65;;;26.70;95.50;;;;;;5064353;28;20056;-60
2022/06/23 07:50:38;;;;;;;2.85;1.90;;;26.70;95.60;;;;;;5065786;28;20036;-61
2022/06/23 07:53:10;;;;;;;2.05;1.77;;;26.70;95.70;;;;;;5066534;28;20055;-59
2022/06/23 07:55:41;;;;;;;3.95;2.58;;;26.70;96.10;;;;;;5046437;28;20040;-57
2022/06/23 07:58:27;;;;;;;3.30;2.00;;;26.70;96.10;;;;;;5067472;28;20048;-59
2022/06/23 08:01:10;;;;;;;2.35;1.83;;;26.70;96.10;;;;;;5070532;28;20313;-58
2022/06/23 08:04:07;;;;;;;4.13;2.30;;;26.80;96.10;;;;;;5065379;28;20049;-59
2022/06/23 08:06:35;;;;;;;2.78;1.92;;;26.80;96.30;;;;;;5055624;28;20140;-59
2022/06/23 08:09:27;;;;;;;1.65;1.38;;;26.80;96.30;;;;;;5059934;28;20044;-64
2022/06/23 08:17:53;;;;;;;1.58;1.48;;;26.90;96.80;;;;;;5059499;28;20370;-66
2022/06/23 08:20:23;;;;;;;4.15;2.03;;;26.90;96.80;;;;;;5069454;28;20045;-59
2022/06/23 08:22:54;;;;;;;2.25;1.40;;;26.90;96.80;;;;;;5068970;28;20327;-56
2022/06/23 08:25:22;;;;;;;5.13;2.90;;;26.80;96.70;;;;;;5070922;28;20496;-57
2022/06/23 08:27:52;;;;;;;3.08;1.52;;;26.90;96.70;;;;;;5071289;28;20064;-61
2022/06/23 08:30:21;;;;;;;4.70;2.70;;;26.90;96.60;;;;;;5072051;28;20479;-58
2022/06/23 08:32:51;;;;;;;1.85;1.58;;;26.80;96.50;;;;;;5065870;28;20406;-60
2022/06/23 08:35:40;;;;;;;4.80;2.60;;;26.90;96.60;;;;;;5053411;28;21018;-60
2022/06/23 08:38:20;;;;;;;1.48;1.40;;;26.90;96.60;;;;;;5062441;28;20036;-58
2022/06/23 08:41:12;;;;;;;2.03;1.42;;;26.90;96.40;;;;;;5066568;28;20430;-56
2022/06/23 08:43:52;;;;;;;2.35;1.75;;;26.90;96.30;;;;;;5066295;28;20048;-56
2022/06/23 08:46:28;;;;;;;1.83;1.42;;;26.80;96.20;;;;;;5066560;28;20119;-60
2022/06/23 08:48:55;;;;;;;5.05;2.45;;;26.80;96.00;;;;;;5067479;28;20040;-57
2022/06/23 08:51:51;;;;;;;2.80;1.60;;;26.70;95.90;;;;;;5051575;28;20056;-58
2022/06/23 08:54:45;;;;;;;2.40;1.75;;;26.70;95.80;;;;;;5066784;28;20059;-58
2022/06/23 08:57:20;;;;;;;2.75;1.67;;;26.80;96.00;;;;;;5065623;28;20499;-60
2022/06/23 09:00:00;;;;;;;1.95;1.48;;;26.80;96.20;;;;;;5071502;28;20048;-59
2022/06/23 09:02:37;;;;;;;3.65;2.10;;;26.80;96.20;;;;;;5069382;28;20037;-62
2022/06/23 09:05:54;;;;;;;1.00;1.00;;;26.90;96.30;;;;;;5058344;28;20056;-58
2022/06/23 09:08:33;;;;;;;0.88;0.88;;;26.90;96.40;;;;;;5064000;28;20052;-61
2022/06/23 09:11:39;;;;;;;0.75;0.75;;;26.90;96.40;;;;;;5073177;28;20139;-58
2022/06/23 09:14:16;;;;;;;2.55;1.58;;;26.90;96.40;;;;;;5060823;28;20464;-61
2022/06/23 09:17:14;;;;;;;2.83;1.95;;;26.90;96.40;;;;;;5065675;28;20038;-58
2022/06/23 09:19:54;;;;;;;2.40;1.05;;;26.90;96.20;;;;;;5053267;28;20052;-63
2022/06/23 09:22:43;;;;;;;3.28;1.90;;;26.90;96.50;;;;;;5061654;28;20052;-59
2022/06/23 09:25:31;;;;;;;6.00;2.08;;;26.90;96.90;;;;;;5065338;28;20463;-57
2022/06/23 09:28:14;;;;;;;4.68;1.25;;;26.90;97.10;;;;;;5072531;28;20048;-60
2022/06/23 09:30:42;;;;;;;0.98;0.90;;;26.90;97.20;;;;;;5070930;28;20056;-61
2022/06/23 09:33:20;;;;;;;14.65;2.30;;;26.90;97.10;;;;;;5069044;28;20045;-58
2022/06/23 09:35:56;;;;;;;3.08;1.83;;;26.90;96.80;;;;;;5068987;28;20048;-58
2022/06/23 09:38:48;;;;;;;3.28;2.10;;;27.00;96.90;;;;;;5069510;28;20047;-55
2022/06/23 09:41:42;;;;;;;0.90;0.73;;;26.90;97.20;;;;;;5051784;28;20064;-60
2022/06/23 09:44:44;;;;;;;3.13;1.77;;;27.00;97.10;;;;;;5067443;28;20514;-59
2022/06/23 09:47:27;;;;;;;1.27;0.93;;;27.00;97.20;;;;;;5065874;28;20048;-58
2022/06/23 09:50:11;;;;;;;3.42;2.15;;;27.00;97.20;;;;;;5068573;28;20155;-61
2022/06/23 09:53:10;;;;;;;2.13;1.80;;;27.00;97.30;;;;;;5058316;28;20048;-62
2022/06/23 09:55:52;;;;;;;1.48;1.30;;;27.00;97.00;;;;;;5035078;28;20435;-63
2022/06/23 09:58:39;;;;;;;0.82;0.82;;;27.00;96.70;;;;;;5057532;28;20045;-58
2022/06/23 10:01:09;;;;;;;6.03;1.33;;;26.90;96.70;;;;;;5061038;28;20492;-58
2022/06/23 10:03:58;;;;;;;0.85;0.82;;;26.90;96.70;;;;;;5060789;28;20036;-64
2022/06/23 10:06:41;;;;;;;2.65;1.63;;;26.90;96.70;;;;;;5018179;28;1102318;-62
2022/06/23 10:09:33;;;;;;;2.28;1.88;;;27.00;96.90;;;;;;5065354;28;20048;-65
2022/06/23 10:12:22;;;;;;;0.65;0.65;;;27.00;96.90;;;;;;5063921;28;20048;-58
2022/06/23 10:15:08;;;;;;;1.60;1.08;;;27.00;96.60;;;;;;5060570;28;20075;-59
2022/06/23 10:17:50;;;;;;;0.85;0.85;;;27.10;97.40;;;;;;5055430;28;20044;-59
2022/06/23 10:20:55;;;;;;;4.32;2.33;;;27.10;97.50;;;;;;5060169;28;20575;-58
2022/06/23 10:23:46;;;;;;;3.22;1.52;;;27.10;97.70;;;;;;5061400;28;20049;-57
2022/06/23 10:26:54;;;;;;;22.85;3.28;;;27.20;97.90;;;;;;5065256;28;20051;-57
2022/06/23 10:29:30;;;;;;;3.60;1.83;;;27.10;98.30;;;;;;5062749;28;20048;-61
2022/06/23 10:32:29;;;;;;;3.60;1.95;;;27.20;98.10;;;;;;5065203;28;20037;-63
2022/06/23 10:35:42;;;;;;;1.80;1.10;;;27.20;98.30;;;;;;5058618;28;20407;-58
2022/06/23 10:38:33;;;;;;;;;;;27.30;99.10;;;;;;5064459;28;20044;-57
2022/06/23 10:41:17;;;;;;;3.35;1.60;;;27.20;98.00;;;;;;5067279;28;19924;-62
2022/06/23 10:44:27;;;;;;;1.65;0.93;;;27.20;97.60;;;;;;5050817;28;20056;-62
2022/06/23 10:47:24;;;;;;;2.25;1.70;;;27.20;97.50;;;;;;5008314;28;20064;-57
2022/06/23 10:50:10;;;;;;;1.40;1.20;;;27.20;98.20;;;;;;5043032;28;20404;-57
2022/06/23 10:53:00;;;;;;;3.50;1.90;;;27.20;97.90;;;;;;5066730;28;20045;-62
2022/06/23 10:55:46;;;;;;;2.40;1.50;;;27.30;97.80;;;;;;5067064;28;21209;-57
2022/06/23 10:58:35;;;;;;;3.40;2.07;;;27.20;97.50;;;;;;5063407;28;20269;-58
2022/06/23 11:01:31;;;;;;;4.38;1.85;;;27.30;97.50;;;;;;5071175;28;20055;-55
2022/06/23 11:04:34;;;;;;;1.27;1.17;;;27.30;97.20;;;;;;5073451;28;20511;-57
2022/06/23 11:07:07;;;;;;;2.53;1.17;;;27.20;97.00;;;;;;5067557;28;20061;-57
2022/06/23 11:09:57;;;;;;;12.50;4.32;;;27.20;96.90;;;;;;5058438;28;20041;-54
2022/06/23 11:12:49;;;;;;;1.90;1.17;;;27.20;96.80;;;;;;5068397;28;20044;-53
2022/06/23 11:15:30;;;;;;;1.83;1.33;;;27.20;96.20;;;;;;5069818;28;20104;-54
2022/06/23 11:18:24;;;;;;;3.13;1.95;;;27.20;96.30;;;;;;5066482;28;20049;-55
2022/06/23 11:20:57;;;;;;;1.15;1.05;;;27.20;96.30;;;;;;5065701;28;20057;-53
2022/06/23 11:23:49;;;;;;;4.70;3.33;;;27.30;96.70;;;;;;5047272;28;20056;-59
2022/06/23 11:26:50;;;;;;;2.95;1.77;;;27.30;96.50;;;;;;5066096;28;20053;-56
2022/06/23 11:29:36;;;;;;;2.28;1.77;;;27.30;96.70;;;;;;5065588;28;20457;-57
2022/06/23 11:32:06;;;;;;;10.02;4.43;;;27.30;96.70;;;;;;5066884;28;20057;-55
2022/06/23 11:34:41;;;;;;;10.48;2.75;;;27.30;97.00;;;;;;5061725;28;20067;-53
2022/06/23 11:37:19;;;;;;;6.32;2.30;;;27.30;97.70;;;;;;5063438;28;20384;-53
2022/06/23 11:40:24;;;;;;;1.30;1.15;;;27.40;96.20;;;;;;5062055;28;20407;-51
2022/06/23 11:43:07;;;;;;;1.35;1.25;;;27.40;96.10;;;;;;5059524;28;20044;-53
2022/06/23 11:45:49;;;;;;;6.45;2.42;;;27.40;95.70;;;;;;5065890;28;20053;-53
2022/06/23 11:48:48;;;;;;;6.07;4.32;;;27.30;95.60;;;;;;5047445;28;20416;-53
2022/06/23 11:51:37;;;;;;;2.15;1.77;;;27.30;95.60;;;;;;5053157;28;20049;-53
2022/06/23 11:54:29;;;;;;;12.80;2.80;;;27.30;95.40;;;;;;5051797;28;20044;-53
2022/06/23 11:57:09;;;;;;;3.05;1.75;;;27.30;95.40;;;;;;5059874;28;20139;-55
2022/06/23 12:00:08;;;;;;;7.25;3.53;;;27.30;95.20;;;;;;5055105;28;20056;-55
2022/06/23 12:03:18;;;;;;;3.72;2.45;;;27.30;95.20;;;;;;5046011;28;20053;-53
2022/06/23 12:06:11;;;;;;;7.57;3.40;;;27.30;95.10;;;;;;5054621;28;20505;-55
2022/06/23 12:08:50;;;;;;;2.35;2.03;;;27.30;94.90;;;;;;5047833;28;20052;-57
2022/06/23 12:11:17;;;;;;;3.80;1.90;;;27.30;94.90;;;;;;5064546;28;20052;-52
2022/06/23 12:13:46;;;;;;;1.05;0.98;;;27.30;94.90;;;;;;5050551;28;20567;-53
2022/06/23 12:16:13;;;;;;;1.70;0.82;;;27.30;94.70;;;;;;5053848;28;20053;-55
2022/06/23 12:18:48;;;;;;;3.25;2.35;;;27.40;94.70;;;;;;5068023;28;20044;-58
2022/06/23 12:21:39;;;;;;;2.55;1.75;;;27.40;94.70;;;;;;5048055;28;20057;-53
2022/06/23 12:24:35;;;;;;;4.00;2.10;;;27.40;94.60;;;;;;5051130;28;20048;-56
2022/06/23 12:27:25;;;;;;;8.45;3.28;;;27.40;94.50;;;;;;5048449;28;20075;-53
2022/06/23 12:29:59;;;;;;;4.47;2.88;;;27.30;94.50;;;;;;5055593;28;20048;-52
2022/06/23 12:32:44;;;;;;;2.88;1.98;;;27.40;94.40;;;;;;5071511;28;20051;-51
2022/06/23 12:35:26;;;;;;;3.70;1.75;;;27.40;94.30;;;;;;5055028;28;20051;-57
2022/06/23 12:38:06;;;;;;;2.80;1.63;;;27.40;94.20;;;;;;5046715;28;20064;-55
2022/06/23 12:40:51;;;;;;;2.38;1.75;;;27.40;94.10;;;;;;5052512;28;20045;-52
2022/06/23 12:43:35;;;;;;;3.22;2.38;;;27.40;94.00;;;;;;5049049;28;20048;-55
2022/06/23 12:46:21;;;;;;;1.38;1.27;;;27.40;94.00;;;;;;5064914;28;20052;-59
2022/06/23 12:49:00;;;;;;;1.48;1.38;;;27.40;93.80;;;;;;5046949;28;20676;-56
2022/06/23 12:51:46;;;;;;;1.08;0.68;;;27.40;93.80;;;;;;5063729;28;20373;-57
2022/06/23 12:54:42;;;;;;;8.10;2.00;;;27.50;93.70;;;;;;5055147;28;20060;-54
2022/06/23 12:57:30;;;;;;;3.45;1.92;;;27.50;93.70;;;;;;5054819;28;20066;-56
2022/06/23 13:00:18;;;;;;;6.03;3.20;;;27.50;93.70;;;;;;5064910;28;20040;-56
2022/06/23 13:02:56;;;;;;;1.42;1.33;;;27.60;93.60;;;;;;5062839;28;20059;-56
2022/06/23 13:05:37;;;;;;;2.15;1.45;;;27.60;93.50;;;;;;5053739;28;20057;-55
2022/06/23 13:08:11;;;;;;;3.20;1.90;;;27.60;93.50;;;;;;5051461;28;20041;-53
2022/06/23 13:10:48;;;;;;;1.27;0.88;;;27.60;93.50;;;;;;5057001;28;20067;-53
2022/06/23 13:13:35;;;;;;;2.67;2.22;;;27.60;93.40;;;;;;5064291;28;20144;-54
2022/06/23 13:16:13;;;;;;;2.05;1.63;;;27.70;93.80;;;;;;5063896;28;20052;-58
2022/06/23 13:18:47;;;;;;;1.45;1.35;;;27.70;94.20;;;;;;5068776;28;20051;-57
2022/06/23 13:21:31;;;;;;;50.28;4.75;;;27.80;95.50;;;;;;5050717;28;20045;-56
2022/06/23 13:24:02;;;;;;;3.80;2.00;;;27.70;95.20;;;;;;5063383;28;20044;-55
2022/06/23 13:26:33;;;;;;;2.33;1.48;;;27.80;95.40;;;;;;5057937;28;20056;-57
2022/06/23 13:29:12;;;;;;;9.15;2.55;;;27.80;95.60;;;;;;5066480;28;20049;-56
2022/06/23 13:31:55;;;;;;;1.80;1.33;;;27.90;95.70;;;;;;5070167;28;20040;-60
2022/06/23 13:34:31;;;;;;;1.05;1.00;;;27.90;93.70;;;;;;5069661;28;20044;-57
2022/06/23 13:37:00;;;;;;;2.43;1.70;;;28.20;92.90;;;;;;5065040;28;20056;-59
2022/06/23 13:39:56;;;;;;;4.03;2.60;;;28.20;92.20;;;;;;5062016;28;20302;-54
2022/06/23 13:43:07;;;;;;;2.08;1.50;;;28.50;91.40;;;;;;5064590;28;20059;-57
2022/06/23 13:45:43;;;;;;;3.83;2.47;;;28.50;91.30;;;;;;5036660;28;20060;-56
2022/06/23 13:48:44;;;;;;;3.45;1.63;;;28.40;91.20;;;;;;5059857;28;20052;-52
2022/06/23 13:51:20;;;;;;;1.42;1.27;;;28.50;90.80;;;;;;5053466;28;20036;-58
2022/06/23 13:54:07;;;;;;;2.13;1.27;;;28.50;90.50;;;;;;5061081;28;20040;-58
2022/06/23 13:56:58;;;;;;;4.57;2.88;;;28.70;90.00;;;;;;5067992;28;20041;-59
2022/06/23 13:59:32;;;;;;;0.63;0.57;;;28.80;89.60;;;;;;5065351;28;20052;-59
2022/06/23 14:02:10;;;;;;;2.45;1.75;;;29.00;88.50;;;;;;5068529;28;20047;-57
2022/06/23 14:04:40;;;;;;;0.80;0.80;;;28.90;89.00;;;;;;5060988;28;20047;-57
2022/06/23 14:07:13;;;;;;;4.88;2.35;;;28.70;90.20;;;;;;5061684;28;20059;-59
2022/06/23 14:09:48;;;;;;;4.00;1.55;;;28.60;90.30;;;;;;5064049;28;20052;-60
2022/06/23 14:12:19;;;;;;;0.88;0.68;;;28.80;90.00;;;;;;5057203;28;20055;-58